Shreveport Regional Airport
KSHV : now visible

Airfield :











YOU CAN JOIN US ON...

 
LOGIN :

Register | Disclaimer

   EN    FR    IT 

 









Legend :    VFR   Marginal VFR   IFR   Intensive IFR   Very Intensive IFR
Visi :
Ceiling :
>= 8 km
>= 3000ft
5 to 8 km
1000 to 3000 ft
1500m to 5 km
500 to 1000 ft
800 to 1500m
200 to 500 ft
< 800m
< 200 ft
Symbols :   Thunderstorms  Fog  Heavy snow  Heavy precipitations  Wind > 20 kt






- Airport Elevation : 258 ft
- IATA code : SHV


KSHV - Shreveport Regional

CURRENT METAR :
  • 120256Z 00000KT 10SM CLR 03/M01 A3046 RMK AO2 SLP315 T00331006 53003

EXPIRED METARs :
  • 120156Z 00000KT 10SM CLR 04/01 A3045 RMK AO2 SLP312 T00440006
  • 120056Z 00000KT 10SM FEW270 06/00 A3045 RMK AO2 SLP313 T00610000

TAF KSHV
Valid from the 12 at 00:00 until the 13 at 00:00 UTC


112320Z 1200/1224 VRB03KT P6SM FEW250
FM122000 VRB03KT P6SM SCT250



MET'MAP, your aeronautical weather chart ! - Copyright ORBIFLY December 2007 - Disclaimer

ORBIFLY MET'MAP TEAM :

Programming & Development : Alexandra Zaïnal
Concept & original design : Baudouin d'Aumeries
Assistance for programming : Marc-Olivier Méhu
Technical & hardware support : Manuel Goepfert

Contact : metmap@orbifly.com




SOURCES & CREDITS :

   NOAA       Earth
Advisory